sensor_id;sensor_type;location;lat;lon;timestamp;pressure;altitude;pressure_sealevel;temperature;humidity
30110;BME280;14965;50.660;13.226;2023-11-21T00:01:07;94171.25;;;4.92;100.00
30110;BME280;14965;50.660;13.226;2023-11-21T00:03:33;94172.88;;;4.89;100.00
30110;BME280;14965;50.660;13.226;2023-11-21T00:05:59;94171.25;;;4.92;100.00
30110;BME280;14965;50.660;13.226;2023-11-21T00:08:25;94171.19;;;4.95;100.00
30110;BME280;14965;50.660;13.226;2023-11-21T00:10:51;94186.78;;;4.98;100.00
30110;BME280;14965;50.660;13.226;2023-11-21T00:13:17;94180.44;;;5.02;100.00
30110;BME280;14965;50.660;13.226;2023-11-21T00:15:43;94189.84;;;5.00;100.00
30110;BME280;14965;50.660;13.226;2023-11-21T00:18:10;94192.53;;;5.04;100.00
30110;BME280;14965;50.660;13.226;2023-11-21T00:20:36;94192.09;;;5.06;100.00
30110;BME280;14965;50.660;13.226;2023-11-21T00:23:02;94201.44;;;5.08;100.00
30110;BME280;14965;50.660;13.226;2023-11-21T00:25:28;94192.81;;;5.10;100.00
30110;BME280;14965;50.660;13.226;2023-11-21T00:27:54;94186.56;;;5.09;100.00
30110;BME280;14965;50.660;13.226;2023-11-21T00:30:19;94181.47;;;5.11;100.00
30110;BME280;14965;50.660;13.226;2023-11-21T00:32:45;94192.81;;;5.10;100.00
30110;BME280;14965;50.660;13.226;2023-11-21T00:35:13;94187.34;;;5.10;100.00
30110;BME280;14965;50.660;13.226;2023-11-21T00:37:39;94188.47;;;5.12;100.00
30110;BME280;14965;50.660;13.226;2023-11-21T00:40:06;94192.75;;;5.13;100.00
30110;BME280;14965;50.660;13.226;2023-11-21T00:42:32;94192.34;;;5.15;100.00
30110;BME280;14965;50.660;13.226;2023-11-21T00:44:58;94196.63;;;5.16;100.00
30110;BME280;14965;50.660;13.226;2023-11-21T00:47:24;94189.25;;;5.13;100.00
30110;BME280;14965;50.660;13.226;2023-11-21T00:49:50;94192.41;;;5.11;100.00
30110;BME280;14965;50.660;13.226;2023-11-21T00:52:17;94187.69;;;5.12;100.00
30110;BME280;14965;50.660;13.226;2023-11-21T00:54:44;94197.94;;;5.08;100.00
30110;BME280;14965;50.660;13.226;2023-11-21T00:57:10;94197.56;;;5.06;100.00
30110;BME280;14965;50.660;13.226;2023-11-21T00:59:35;94194.00;;;5.09;100.00
30110;BME280;14965;50.660;13.226;2023-11-21T01:02:01;94202.16;;;5.12;100.00
30110;BME280;14965;50.660;13.226;2023-11-21T01:04:28;94197.13;;;5.11;100.00
30110;BME280;14965;50.660;13.226;2023-11-21T01:06:53;94199.84;;;5.11;100.00
30110;BME280;14965;50.660;13.226;2023-11-21T01:09:21;94198.28;;;5.10;100.00
30110;BME280;14965;50.660;13.226;2023-11-21T01:11:47;94199.16;;;5.07;100.00
30110;BME280;14965;50.660;13.226;2023-11-21T01:14:13;94202.22;;;5.09;100.00
30110;BME280;14965;50.660;13.226;2023-11-21T01:16:39;94201.44;;;5.08;100.00
30110;BME280;14965;50.660;13.226;2023-11-21T01:19:05;94199.09;;;5.10;100.00
30110;BME280;14965;50.660;13.226;2023-11-21T01:21:31;94206.88;;;5.12;100.00
30110;BME280;14965;50.660;13.226;2023-11-21T01:23:57;94206.44;;;5.13;100.00
30110;BME280;14965;50.660;13.226;2023-11-21T01:26:24;94210.75;;;5.14;100.00
30110;BME280;14965;50.660;13.226;2023-11-21T01:28:50;94218.09;;;5.17;100.00
30110;BME280;14965;50.660;13.226;2023-11-21T01:31:16;94209.47;;;5.19;100.00
30110;BME280;14965;50.660;13.226;2023-11-21T01:33:42;94214.94;;;5.19;100.00
30110;BME280;14965;50.660;13.226;2023-11-21T01:36:09;94214.53;;;5.20;100.00
30110;BME280;14965;50.660;13.226;2023-11-21T01:38:35;94202.03;;;5.19;100.00
30110;BME280;14965;50.660;13.226;2023-11-21T01:41:01;94208.28;;;5.20;100.00
30110;BME280;14965;50.660;13.226;2023-11-21T01:43:29;94207.50;;;5.19;100.00
30110;BME280;14965;50.660;13.226;2023-11-21T01:45:55;94210.66;;;5.18;100.00
30110;BME280;14965;50.660;13.226;2023-11-21T01:48:21;94202.88;;;5.16;100.00
30110;BME280;14965;50.660;13.226;2023-11-21T01:50:47;94202.88;;;5.16;100.00
30110;BME280;14965;50.660;13.226;2023-11-21T01:53:13;94199.69;;;5.18;100.00
30110;BME280;14965;50.660;13.226;2023-11-21T01:55:41;94196.97;;;5.18;100.00
30110;BME280;14965;50.660;13.226;2023-11-21T01:58:07;94195.78;;;5.19;100.00
30110;BME280;14965;50.660;13.226;2023-11-21T02:00:35;94190.25;;;5.22;100.00
30110;BME280;14965;50.660;13.226;2023-11-21T02:03:01;94187.84;;;5.24;100.00
30110;BME280;14965;50.660;13.226;2023-11-21T02:05:27;94189.38;;;5.25;100.00
30110;BME280;14965;50.660;13.226;2023-11-21T02:07:53;94189.38;;;5.25;100.00
30110;BME280;14965;50.660;13.226;2023-11-21T02:10:19;94197.19;;;5.27;100.00
30110;BME280;14965;50.660;13.226;2023-11-21T02:12:45;94197.97;;;5.28;100.00
30110;BME280;14965;50.660;13.226;2023-11-21T02:15:13;94186.25;;;5.27;100.00
30110;BME280;14965;50.660;13.226;2023-11-21T02:17:41;94199.13;;;5.27;100.00
30110;BME280;14965;50.660;13.226;2023-11-21T02:20:08;94190.59;;;5.24;100.00
30110;BME280;14965;50.660;13.226;2023-11-21T02:22:40;94196.06;;;5.24;100.00
30110;BME280;14965;50.660;13.226;2023-11-21T02:25:08;94194.09;;;5.25;100.00
30110;BME280;14965;50.660;13.226;2023-11-21T02:27:34;94197.59;;;5.25;100.00
30110;BME280;14965;50.660;13.226;2023-11-21T02:30:00;94199.50;;;5.29;100.00
30110;BME280;14965;50.660;13.226;2023-11-21T02:32:25;94205.31;;;5.31;100.00
30110;BME280;14965;50.660;13.226;2023-11-21T02:34:51;94201.41;;;5.32;100.00
30110;BME280;14965;50.660;13.226;2023-11-21T02:37:17;94204.91;;;5.32;100.00
30110;BME280;14965;50.660;13.226;2023-11-21T02:39:43;94208.41;;;5.33;100.00
30110;BME280;14965;50.660;13.226;2023-11-21T02:42:10;94204.47;;;5.34;100.00
30110;BME280;14965;50.660;13.226;2023-11-21T02:44:36;94212.63;;;5.37;100.00
30110;BME280;14965;50.660;13.226;2023-11-21T02:47:03;94207.94;;;5.38;100.00
30110;BME280;14965;50.660;13.226;2023-11-21T02:49:29;94206.31;;;5.40;100.00
30110;BME280;14965;50.660;13.226;2023-11-21T02:51:55;94210.59;;;5.41;100.00
30110;BME280;14965;50.660;13.226;2023-11-21T02:54:21;94216.44;;;5.43;100.00
30110;BME280;14965;50.660;13.226;2023-11-21T02:56:47;94216.00;;;5.45;100.00
30110;BME280;14965;50.660;13.226;2023-11-21T02:59:14;94217.97;;;5.44;100.00
30110;BME280;14965;50.660;13.226;2023-11-21T03:01:40;94212.91;;;5.43;100.00
30110;BME280;14965;50.660;13.226;2023-11-21T03:04:06;94207.16;;;5.37;100.00
30110;BME280;14965;50.660;13.226;2023-11-21T03:06:32;94219.72;;;5.35;100.00
30110;BME280;14965;50.660;13.226;2023-11-21T03:08:58;94219.72;;;5.35;100.00
30110;BME280;14965;50.660;13.226;2023-11-21T03:11:24;94211.50;;;5.35;100.00
30110;BME280;14965;50.660;13.226;2023-11-21T03:13:49;94207.22;;;5.34;100.00
30110;BME280;14965;50.660;13.226;2023-11-21T03:16:18;94209.19;;;5.33;100.00
30110;BME280;14965;50.660;13.226;2023-11-21T03:18:44;94209.97;;;5.34;100.00
30110;BME280;14965;50.660;13.226;2023-11-21T03:21:10;94216.63;;;5.33;100.00
30110;BME280;14965;50.660;13.226;2023-11-21T03:23:36;94220.91;;;5.34;100.00
30110;BME280;14965;50.660;13.226;2023-11-21T03:26:03;94225.19;;;5.35;100.00
30110;BME280;14965;50.660;13.226;2023-11-21T03:28:29;94219.72;;;5.35;100.00
30110;BME280;14965;50.660;13.226;2023-11-21T03:30:54;94218.19;;;5.34;100.00
30110;BME280;14965;50.660;13.226;2023-11-21T03:33:22;94221.34;;;5.32;100.00
30110;BME280;14965;50.660;13.226;2023-11-21T03:35:48;94217.06;;;5.31;100.00
30110;BME280;14965;50.660;13.226;2023-11-21T03:38:14;94220.63;;;5.28;100.00
30110;BME280;14965;50.660;13.226;2023-11-21T03:40:40;94232.78;;;5.27;100.00
30110;BME280;14965;50.660;13.226;2023-11-21T03:43:06;94226.19;;;5.24;100.00
30110;BME280;14965;50.660;13.226;2023-11-21T03:45:32;94234.38;;;5.24;100.00
30110;BME280;14965;50.660;13.226;2023-11-21T03:47:58;94224.63;;;5.23;100.00
30110;BME280;14965;50.660;13.226;2023-11-21T03:50:25;94230.88;;;5.24;100.00
30110;BME280;14965;50.660;13.226;2023-11-21T03:52:51;94232.84;;;5.23;100.00
30110;BME280;14965;50.660;13.226;2023-11-21T03:55:17;94236.00;;;5.22;100.00
30110;BME280;14965;50.660;13.226;2023-11-21T03:57:43;94228.63;;;5.19;100.00
30110;BME280;14965;50.660;13.226;2023-11-21T04:00:10;94243.16;;;5.16;100.00
30110;BME280;14965;50.660;13.226;2023-11-21T04:02:36;94242.44;;;5.12;100.00
30110;BME280;14965;50.660;13.226;2023-11-21T04:05:03;94236.19;;;5.11;100.00
30110;BME280;14965;50.660;13.226;2023-11-21T04:07:30;94238.94;;;5.11;100.00
30110;BME280;14965;50.660;13.226;2023-11-21T04:09:56;94233.03;;;5.13;100.00
30110;BME280;14965;50.660;13.226;2023-11-21T04:12:22;94238.50;;;5.13;100.00
30110;BME280;14965;50.660;13.226;2023-11-21T04:14:48;94238.09;;;5.14;100.00
30110;BME280;14965;50.660;13.226;2023-11-21T04:17:18;94247.44;;;5.17;100.00
30110;BME280;14965;50.660;13.226;2023-11-21T04:19:44;94245.47;;;5.17;100.00
30110;BME280;14965;50.660;13.226;2023-11-21T04:22:10;94248.19;;;5.17;100.00
30110;BME280;14965;50.660;13.226;2023-11-21T04:24:37;94239.97;;;5.17;100.00
30110;BME280;14965;50.660;13.226;2023-11-21T04:27:03;94239.22;;;5.17;100.00
30110;BME280;14965;50.660;13.226;2023-11-21T04:29:29;94243.59;;;5.14;100.00
30110;BME280;14965;50.660;13.226;2023-11-21T04:31:55;94248.25;;;5.14;100.00
30110;BME280;14965;50.660;13.226;2023-11-21T04:34:21;94243.63;;;5.11;100.00
30110;BME280;14965;50.660;13.226;2023-11-21T04:36:47;94250.28;;;5.10;100.00
30110;BME280;14965;50.660;13.226;2023-11-21T04:39:14;94253.81;;;5.10;100.00
30110;BME280;14965;50.660;13.226;2023-11-21T04:41:41;94250.66;;;5.12;100.00
30110;BME280;14965;50.660;13.226;2023-11-21T04:44:07;94249.06;;;5.14;100.00
30110;BME280;14965;50.660;13.226;2023-11-21T04:46:33;94256.84;;;5.16;100.00
30110;BME280;14965;50.660;13.226;2023-11-21T04:48:59;94257.28;;;5.14;100.00
30110;BME280;14965;50.660;13.226;2023-11-21T04:51:25;94255.31;;;5.15;100.00
30110;BME280;14965;50.660;13.226;2023-11-21T04:53:51;94253.72;;;5.14;100.00
30110;BME280;14965;50.660;13.226;2023-11-21T04:56:17;94256.13;;;5.12;100.00
30110;BME280;14965;50.660;13.226;2023-11-21T04:58:44;94250.72;;;5.08;100.00
30110;BME280;14965;50.660;13.226;2023-11-21T05:01:10;94260.94;;;5.04;100.00
30110;BME280;14965;50.660;13.226;2023-11-21T05:03:36;94252.78;;;5.00;100.00
30110;BME280;14965;50.660;13.226;2023-11-21T05:06:02;94252.03;;;5.00;100.00
30110;BME280;14965;50.660;13.226;2023-11-21T05:08:28;94260.59;;;5.02;100.00
30110;BME280;14965;50.660;13.226;2023-11-21T05:10:54;94260.94;;;5.04;100.00
30110;BME280;14965;50.660;13.226;2023-11-21T05:13:20;94264.06;;;5.06;100.00
30110;BME280;14965;50.660;13.226;2023-11-21T05:15:48;94266.78;;;5.06;100.00
30110;BME280;14965;50.660;13.226;2023-11-21T05:18:14;94266.78;;;5.06;100.00
30110;BME280;14965;50.660;13.226;2023-11-21T05:20:39;94274.22;;;5.06;100.00
30110;BME280;14965;50.660;13.226;2023-11-21T05:23:05;94273.81;;;5.07;100.00
30110;BME280;14965;50.660;13.226;2023-11-21T05:25:32;94270.63;;;5.09;100.00
30110;BME280;14965;50.660;13.226;2023-11-21T05:27:57;94271.41;;;5.09;100.00
30110;BME280;14965;50.660;13.226;2023-11-21T05:30:24;94274.50;;;5.11;100.00
30110;BME280;14965;50.660;13.226;2023-11-21T05:32:51;94280.00;;;5.11;100.00
30110;BME280;14965;50.660;13.226;2023-11-21T05:35:17;94285.09;;;5.09;100.00
30110;BME280;14965;50.660;13.226;2023-11-21T05:37:43;94284.69;;;5.11;100.00
30110;BME280;14965;50.660;13.226;2023-11-21T05:40:10;94290.50;;;5.13;100.00
30110;BME280;14965;50.660;13.226;2023-11-21T05:42:36;94288.97;;;5.12;100.00
30110;BME280;14965;50.660;13.226;2023-11-21T05:45:03;94285.81;;;5.13;100.00
30110;BME280;14965;50.660;13.226;2023-11-21T05:47:29;94289.69;;;5.16;100.00
30110;BME280;14965;50.660;13.226;2023-11-21T05:49:56;94290.44;;;5.16;100.00
30110;BME280;14965;50.660;13.226;2023-11-21T05:52:22;94285.34;;;5.18;100.00
30110;BME280;14965;50.660;13.226;2023-11-21T05:54:48;94283.38;;;5.19;100.00
30110;BME280;14965;50.660;13.226;2023-11-21T05:57:14;94290.88;;;5.15;100.00
30110;BME280;14965;50.660;13.226;2023-11-21T05:59:40;94290.94;;;5.11;100.00
30110;BME280;14965;50.660;13.226;2023-11-21T06:02:06;94295.69;;;5.07;100.00
30110;BME280;14965;50.660;13.226;2023-11-21T06:04:32;94299.69;;;5.03;100.00
30110;BME280;14965;50.660;13.226;2023-11-21T06:06:59;94292.34;;;4.96;100.00
30110;BME280;14965;50.660;13.226;2023-11-21T06:09:25;94298.66;;;4.93;100.00
30110;BME280;14965;50.660;13.226;2023-11-21T06:11:51;94308.44;;;4.94;100.00
30110;BME280;14965;50.660;13.226;2023-11-21T06:14:17;94301.81;;;4.91;100.00
30110;BME280;14965;50.660;13.226;2023-11-21T06:16:43;94306.09;;;4.92;100.00
30110;BME280;14965;50.660;13.226;2023-11-21T06:19:09;94306.88;;;4.93;100.00
30110;BME280;14965;50.660;13.226;2023-11-21T06:21:35;94312.72;;;4.95;100.00
30110;BME280;14965;50.660;13.226;2023-11-21T06:24:02;94313.47;;;4.95;100.00
30110;BME280;14965;50.660;13.226;2023-11-21T06:26:28;94316.16;;;4.99;100.00
30110;BME280;14965;50.660;13.226;2023-11-21T06:28:54;94313.44;;;4.99;100.00
30110;BME280;14965;50.660;13.226;2023-11-21T06:31:20;94325.13;;;4.99;100.00
30110;BME280;14965;50.660;13.226;2023-11-21T06:33:46;94318.47;;;5.00;100.00
30110;BME280;14965;50.660;13.226;2023-11-21T06:36:12;94323.19;;;5.00;100.00
30110;BME280;14965;50.660;13.226;2023-11-21T06:38:38;94324.31;;;5.03;100.00
30110;BME280;14965;50.660;13.226;2023-11-21T06:41:06;94330.91;;;5.05;100.00
30110;BME280;14965;50.660;13.226;2023-11-21T06:43:32;94335.22;;;5.06;100.00
30110;BME280;14965;50.660;13.226;2023-11-21T06:45:58;94330.84;;;5.09;100.00
30110;BME280;14965;50.660;13.226;2023-11-21T06:48:24;94334.34;;;5.09;100.00
30110;BME280;14965;50.660;13.226;2023-11-21T06:50:50;94339.00;;;5.12;100.00
30110;BME280;14965;50.660;13.226;2023-11-21T06:53:16;94327.63;;;5.14;100.00
30110;BME280;14965;50.660;13.226;2023-11-21T06:55:41;94329.97;;;5.15;100.00
30110;BME280;14965;50.660;13.226;2023-11-21T06:58:09;94336.66;;;5.14;100.00
30110;BME280;14965;50.660;13.226;2023-11-21T07:00:35;94331.94;;;5.15;100.00
30110;BME280;14965;50.660;13.226;2023-11-21T07:03:00;94325.69;;;5.14;100.00
30110;BME280;14965;50.660;13.226;2023-11-21T07:05:26;94327.22;;;5.15;100.00
30110;BME280;14965;50.660;13.226;2023-11-21T07:07:52;94329.97;;;5.15;100.00
30110;BME280;14965;50.660;13.226;2023-11-21T07:10:18;94336.22;;;5.16;100.00
30110;BME280;14965;50.660;13.226;2023-11-21T07:12:44;94337.41;;;5.15;100.00
30110;BME280;14965;50.660;13.226;2023-11-21T07:15:11;94349.53;;;5.14;100.00
30110;BME280;14965;50.660;13.226;2023-11-21T07:17:37;94351.50;;;5.13;100.00
30110;BME280;14965;50.660;13.226;2023-11-21T07:20:05;94342.13;;;5.14;100.00
30110;BME280;14965;50.660;13.226;2023-11-21T07:22:31;94356.91;;;5.17;100.00
30110;BME280;14965;50.660;13.226;2023-11-21T07:24:57;94361.19;;;5.18;100.00
30110;BME280;14965;50.660;13.226;2023-11-21T07:27:23;94374.81;;;5.21;100.00
30110;BME280;14965;50.660;13.226;2023-11-21T07:29:49;94363.00;;;5.28;100.00
30110;BME280;14965;50.660;13.226;2023-11-21T07:32:16;94377.03;;;5.30;100.00
30110;BME280;14965;50.660;13.226;2023-11-21T07:34:42;94366.84;;;5.31;100.00
30110;BME280;14965;50.660;13.226;2023-11-21T07:37:08;94369.19;;;5.32;100.00
30110;BME280;14965;50.660;13.226;2023-11-21T07:39:34;94373.84;;;5.35;100.00
30110;BME280;14965;50.660;13.226;2023-11-21T07:42:00;94364.38;;;5.40;100.00
30110;BME280;14965;50.660;13.226;2023-11-21T07:44:26;94378.00;;;5.43;100.00
30110;BME280;14965;50.660;13.226;2023-11-21T07:46:52;94372.94;;;5.42;100.00
30110;BME280;14965;50.660;13.226;2023-11-21T07:49:19;94373.66;;;5.46;100.00
30110;BME280;14965;50.660;13.226;2023-11-21T07:51:45;94368.44;;;5.52;100.00
30110;BME280;14965;50.660;13.226;2023-11-21T07:54:11;94381.25;;;5.58;100.00
30110;BME280;14965;50.660;13.226;2023-11-21T07:56:37;94379.22;;;5.62;100.00
30110;BME280;14965;50.660;13.226;2023-11-21T07:59:03;94374.81;;;5.68;100.00
30110;BME280;14965;50.660;13.226;2023-11-21T08:01:29;94379.88;;;5.70;100.00
30110;BME280;14965;50.660;13.226;2023-11-21T08:03:55;94383.34;;;5.74;100.00
30110;BME280;14965;50.660;13.226;2023-11-21T08:06:23;94378.91;;;5.80;100.00
30110;BME280;14965;50.660;13.226;2023-11-21T08:08:48;94384.31;;;5.84;100.00
30110;BME280;14965;50.660;13.226;2023-11-21T08:11:14;94373.44;;;5.80;100.00
30110;BME280;14965;50.660;13.226;2023-11-21T08:13:40;94380.94;;;5.76;100.00
30110;BME280;14965;50.660;13.226;2023-11-21T08:16:07;94388.44;;;5.72;100.00
30110;BME280;14965;50.660;13.226;2023-11-21T08:18:33;94386.91;;;5.71;100.00
30110;BME280;14965;50.660;13.226;2023-11-21T08:21:00;94389.22;;;5.72;100.00
30110;BME280;14965;50.660;13.226;2023-11-21T08:23:27;94386.91;;;5.71;100.00
30110;BME280;14965;50.660;13.226;2023-11-21T08:25:53;94392.44;;;5.67;100.00
30110;BME280;14965;50.660;13.226;2023-11-21T08:28:20;94394.84;;;5.65;100.00
30110;BME280;14965;50.660;13.226;2023-11-21T08:30:46;94395.25;;;5.64;100.00
30110;BME280;14965;50.660;13.226;2023-11-21T08:33:12;94396.44;;;5.63;100.00
30110;BME280;14965;50.660;13.226;2023-11-21T08:35:38;94386.31;;;5.60;100.00
30110;BME280;14965;50.660;13.226;2023-11-21T08:38:04;94391.50;;;5.54;100.00
30110;BME280;14965;50.660;13.226;2023-11-21T08:40:32;94384.88;;;5.52;100.00
30110;BME280;14965;50.660;13.226;2023-11-21T08:42:58;94385.31;;;5.50;100.00
30110;BME280;14965;50.660;13.226;2023-11-21T08:45:24;94383.41;;;5.47;100.00
30110;BME280;14965;50.660;13.226;2023-11-21T08:47:50;94389.72;;;5.44;100.00
30110;BME280;14965;50.660;13.226;2023-11-21T08:50:16;94392.16;;;5.38;100.00
30110;BME280;14965;50.660;13.226;2023-11-21T08:52:44;94394.13;;;5.38;100.00
30110;BME280;14965;50.660;13.226;2023-11-21T08:55:10;94400.78;;;5.37;100.00
30110;BME280;14965;50.660;13.226;2023-11-21T08:57:39;94397.69;;;5.35;100.00
30110;BME280;14965;50.660;13.226;2023-11-21T09:00:07;94398.88;;;5.34;100.00
30110;BME280;14965;50.660;13.226;2023-11-21T09:02:33;94400.44;;;5.35;100.00
30110;BME280;14965;50.660;13.226;2023-11-21T09:05:00;94398.13;;;5.33;100.00
30110;BME280;14965;50.660;13.226;2023-11-21T09:07:26;94406.75;;;5.32;100.00
30110;BME280;14965;50.660;13.226;2023-11-21T09:09:51;94412.63;;;5.30;100.00
30110;BME280;14965;50.660;13.226;2023-11-21T09:12:17;94408.41;;;5.25;100.00
30110;BME280;14965;50.660;13.226;2023-11-21T09:14:46;94411.09;;;5.29;100.00
30110;BME280;14965;50.660;13.226;2023-11-21T09:17:12;94419.31;;;5.29;100.00
30110;BME280;14965;50.660;13.226;2023-11-21T09:19:38;94417.75;;;5.28;100.00
30110;BME280;14965;50.660;13.226;2023-11-21T09:22:04;94420.50;;;5.28;100.00
30110;BME280;14965;50.660;13.226;2023-11-21T09:24:30;94423.28;;;5.24;100.00
30110;BME280;14965;50.660;13.226;2023-11-21T09:26:56;94423.28;;;5.24;100.00
30110;BME280;14965;50.660;13.226;2023-11-21T09:29:22;94418.59;;;5.25;100.00
30110;BME280;14965;50.660;13.226;2023-11-21T09:31:50;94426.78;;;5.25;100.00
30110;BME280;14965;50.660;13.226;2023-11-21T09:34:16;94436.63;;;5.22;100.00
30110;BME280;14965;50.660;13.226;2023-11-21T09:36:45;94425.69;;;5.22;100.00
30110;BME280;14965;50.660;13.226;2023-11-21T09:39:10;94431.25;;;5.15;100.00
30110;BME280;14965;50.660;13.226;2023-11-21T09:41:43;94438.31;;;5.13;100.00
30110;BME280;14965;50.660;13.226;2023-11-21T09:44:13;94437.53;;;5.12;100.00
30110;BME280;14965;50.660;13.226;2023-11-21T09:46:44;94437.97;;;5.11;100.00
30110;BME280;14965;50.660;13.226;2023-11-21T09:49:17;94439.50;;;5.12;100.00
30110;BME280;14965;50.660;13.226;2023-11-21T09:51:46;94441.81;;;5.13;100.00
30110;BME280;14965;50.660;13.226;2023-11-21T09:54:16;94439.09;;;5.13;100.00
30110;BME280;14965;50.660;13.226;2023-11-21T09:56:43;94438.78;;;5.08;100.00
30110;BME280;14965;50.660;13.226;2023-11-21T09:59:15;94444.31;;;5.04;100.00
30110;BME280;14965;50.660;13.226;2023-11-21T10:01:42;94436.47;;;5.06;100.00
30110;BME280;14965;50.660;13.226;2023-11-21T10:04:08;94451.69;;;5.07;100.00
30110;BME280;14965;50.660;13.226;2023-11-21T10:06:36;94435.22;;;5.11;100.00
30110;BME280;14965;50.660;13.226;2023-11-21T10:09:02;94439.47;;;5.15;100.00
30110;BME280;14965;50.660;13.226;2023-11-21T10:11:29;94433.63;;;5.13;100.00
30110;BME280;14965;50.660;13.226;2023-11-21T10:13:56;94439.47;;;5.15;100.00
30110;BME280;14965;50.660;13.226;2023-11-21T10:16:26;94445.34;;;5.14;100.00
30110;BME280;14965;50.660;13.226;2023-11-21T10:18:53;94442.25;;;5.12;100.00
30110;BME280;14965;50.660;13.226;2023-11-21T10:21:20;94436.34;;;5.13;100.00
30110;BME280;14965;50.660;13.226;2023-11-21T10:23:47;94446.91;;;5.15;100.00
30110;BME280;14965;50.660;13.226;2023-11-21T10:26:14;94444.50;;;5.17;100.00
30110;BME280;14965;50.660;13.226;2023-11-21T10:28:40;94444.47;;;5.20;100.00
30110;BME280;14965;50.660;13.226;2023-11-21T10:31:07;94448.34;;;5.23;100.00
30110;BME280;14965;50.660;13.226;2023-11-21T10:33:33;94449.13;;;5.23;100.00
30110;BME280;14965;50.660;13.226;2023-11-21T10:35:59;94448.69;;;5.25;100.00
30110;BME280;14965;50.660;13.226;2023-11-21T10:38:25;94452.16;;;5.29;100.00
30110;BME280;14965;50.660;13.226;2023-11-21T10:40:53;94449.72;;;5.35;100.00
30110;BME280;14965;50.660;13.226;2023-11-21T10:43:20;94458.66;;;5.39;100.00
30110;BME280;14965;50.660;13.226;2023-11-21T10:45:50;94448.06;;;5.41;100.00
30110;BME280;14965;50.660;13.226;2023-11-21T10:48:16;94450.31;;;5.46;100.00
30110;BME280;14965;50.660;13.226;2023-11-21T10:50:42;94446.28;;;5.54;100.00
30110;BME280;14965;50.660;13.226;2023-11-21T10:53:10;94450.84;;;5.64;100.00
30110;BME280;14965;50.660;13.226;2023-11-21T10:55:36;94452.22;;;5.72;100.00
30110;BME280;14965;50.660;13.226;2023-11-21T10:58:04;94455.69;;;5.77;100.00
30110;BME280;14965;50.660;13.226;2023-11-21T11:00:32;94453.66;;;5.81;100.00
30110;BME280;14965;50.660;13.226;2023-11-21T11:02:58;94448.19;;;5.81;100.00
30110;BME280;14965;50.660;13.226;2023-11-21T11:05:27;94455.63;;;5.80;100.00
30110;BME280;14965;50.660;13.226;2023-11-21T11:07:59;94451.28;;;5.83;100.00
30110;BME280;14965;50.660;13.226;2023-11-21T11:10:26;94452.13;;;5.80;100.00
30110;BME280;14965;50.660;13.226;2023-11-21T11:12:53;94456.00;;;5.82;100.00
30110;BME280;14965;50.660;13.226;2023-11-21T11:15:21;94457.91;;;5.85;100.00
30110;BME280;14965;50.660;13.226;2023-11-21T11:17:48;94450.47;;;5.86;100.00
30110;BME280;14965;50.660;13.226;2023-11-21T11:20:16;94462.31;;;5.79;100.00
30110;BME280;14965;50.660;13.226;2023-11-21T11:22:59;94462.75;;;5.78;100.00
30110;BME280;14965;50.660;13.226;2023-11-21T11:25:47;94460.94;;;5.67;100.00
30110;BME280;14965;50.660;13.226;2023-11-21T11:28:21;94459.97;;;5.54;100.00
30110;BME280;14965;50.660;13.226;2023-11-21T11:31:04;94466.28;;;5.51;100.00
30110;BME280;14965;50.660;13.226;2023-11-21T11:33:39;94475.41;;;5.44;100.00
30110;BME280;14965;50.660;13.226;2023-11-21T11:36:15;94475.88;;;5.39;100.00
30110;BME280;14965;50.660;13.226;2023-11-21T11:38:46;94478.66;;;5.36;100.00
30110;BME280;14965;50.660;13.226;2023-11-21T11:41:12;94479.19;;;5.27;100.00
30110;BME280;14965;50.660;13.226;2023-11-21T11:43:39;94473.38;;;5.21;100.00
30110;BME280;14965;50.660;13.226;2023-11-21T11:46:07;94482.53;;;5.11;100.00
30110;BME280;14965;50.660;13.226;2023-11-21T11:48:37;94491.66;;;5.01;100.00
30110;BME280;14965;50.660;13.226;2023-11-21T11:51:05;94483.25;;;4.85;100.00
30110;BME280;14965;50.660;13.226;2023-11-21T11:53:37;94485.72;;;4.75;100.00
30110;BME280;14965;50.660;13.226;2023-11-21T11:56:26;94492.03;;;4.72;100.00
30110;BME280;14965;50.660;13.226;2023-11-21T11:58:54;94494.50;;;4.60;100.00
30110;BME280;14965;50.660;13.226;2023-11-21T12:01:24;94502.41;;;4.54;100.00
30110;BME280;14965;50.660;13.226;2023-11-21T12:04:25;94497.81;;;4.47;100.00
30110;BME280;14965;50.660;13.226;2023-11-21T12:06:52;94501.47;;;4.34;100.00
30110;BME280;14965;50.660;13.226;2023-11-21T12:09:19;94501.63;;;4.19;100.00
30110;BME280;14965;50.660;13.226;2023-11-21T12:11:46;94497.25;;;4.25;100.00
30110;BME280;14965;50.660;13.226;2023-11-21T12:14:13;94501.50;;;4.30;100.00
30110;BME280;14965;50.660;13.226;2023-11-21T12:16:41;94501.47;;;4.34;100.00
30110;BME280;14965;50.660;13.226;2023-11-21T12:19:07;94498.69;;;4.37;100.00
30110;BME280;14965;50.660;13.226;2023-11-21T12:21:34;94510.31;;;4.45;100.00
30110;BME280;14965;50.660;13.226;2023-11-21T12:24:01;94502.47;;;4.47;100.00
30110;BME280;14965;50.660;13.226;2023-11-21T12:26:27;94513.09;;;4.41;100.00
30110;BME280;14965;50.660;13.226;2023-11-21T12:28:53;94522.16;;;4.35;100.00
30110;BME280;14965;50.660;13.226;2023-11-21T12:31:19;94513.22;;;4.31;100.00
30110;BME280;14965;50.660;13.226;2023-11-21T12:33:47;94524.22;;;4.23;100.00
30110;BME280;14965;50.660;13.226;2023-11-21T12:36:13;94530.03;;;4.25;100.00
30110;BME280;14965;50.660;13.226;2023-11-21T12:38:39;94544.44;;;4.33;100.00
30110;BME280;14965;50.660;13.226;2023-11-21T12:41:05;94551.09;;;4.32;100.00
30110;BME280;14965;50.660;13.226;2023-11-21T12:43:31;94543.88;;;4.11;100.00
30110;BME280;14965;50.660;13.226;2023-11-21T12:46:05;94544.28;;;4.10;100.00
30110;BME280;14965;50.660;13.226;2023-11-21T12:48:32;94539.19;;;4.08;100.00